Ash, North Carolina
Current Conditions -  °F | °C
As of 4:53 PM on Saturday 25 Oct 2014 (Local Time) from KCRE Reporting Station
Clear Clear  
Wind Chill: 22°   Ceiling: Unl
Heat Index: 22°   Visibility: 10mi
Dew Point: 11°   Wind: 8mph
Humidity: 48%   Direction: 220°SW
Pressure: 29.92"   Gusts: NA
Location:  34.04°N, 78.52°W
Report Text: KCRE 252053Z 22007KT 10SM CLR 22/11 A2992 RMK AO1 SLP131 T02220106 55012
Loading
Personal Weather Stations






























Interactive Weather Map
Tropical Storm Tracking
New forecast layout! Learn more

10-Day Weather Forecast

Advertisements
Track Severe Weather on mobile